sensor_id;sensor_type;location;lat;lon;timestamp;P1;P2;P0
73517;PMS5003;61766;60.318;25.044;2023-06-26T00:00:25;15;15;
73517;PMS5003;61766;60.318;25.044;2023-06-26T00:02:50;15;15;
73517;PMS5003;61766;60.318;25.044;2023-06-26T00:05:16;13;12;
73517;PMS5003;61766;60.318;25.044;2023-06-26T00:07:42;17;17;
73517;PMS5003;61766;60.318;25.044;2023-06-26T00:10:08;13;13;
73517;PMS5003;61766;60.318;25.044;2023-06-26T00:12:34;15;15;
73517;PMS5003;61766;60.318;25.044;2023-06-26T00:14:59;16;15;
73517;PMS5003;61766;60.318;25.044;2023-06-26T00:17:25;16;16;
73517;PMS5003;61766;60.318;25.044;2023-06-26T00:19:50;16;16;
73517;PMS5003;61766;60.318;25.044;2023-06-26T00:22:16;15;15;
73517;PMS5003;61766;60.318;25.044;2023-06-26T00:24:41;15;15;
73517;PMS5003;61766;60.318;25.044;2023-06-26T00:27:07;16;15;
73517;PMS5003;61766;60.318;25.044;2023-06-26T00:29:33;12;12;
73517;PMS5003;61766;60.318;25.044;2023-06-26T00:31:58;15;15;
73517;PMS5003;61766;60.318;25.044;2023-06-26T00:34:24;15;15;
73517;PMS5003;61766;60.318;25.044;2023-06-26T00:36:50;14;14;
73517;PMS5003;61766;60.318;25.044;2023-06-26T00:39:16;15;15;
73517;PMS5003;61766;60.318;25.044;2023-06-26T00:41:42;18;18;
73517;PMS5003;61766;60.318;25.044;2023-06-26T00:44:07;13;13;
73517;PMS5003;61766;60.318;25.044;2023-06-26T00:46:33;15;15;
73517;PMS5003;61766;60.318;25.044;2023-06-26T00:49:00;14;14;
73517;PMS5003;61766;60.318;25.044;2023-06-26T00:51:25;15;15;
73517;PMS5003;61766;60.318;25.044;2023-06-26T00:53:51;16;16;
73517;PMS5003;61766;60.318;25.044;2023-06-26T00:56:17;14;14;
73517;PMS5003;61766;60.318;25.044;2023-06-26T00:58:42;19;18;
73517;PMS5003;61766;60.318;25.044;2023-06-26T01:01:08;13;12;
73517;PMS5003;61766;60.318;25.044;2023-06-26T01:03:33;15;15;
73517;PMS5003;61766;60.318;25.044;2023-06-26T01:05:59;15;15;
73517;PMS5003;61766;60.318;25.044;2023-06-26T01:08:25;20;20;
73517;PMS5003;61766;60.318;25.044;2023-06-26T01:10:50;20;20;
73517;PMS5003;61766;60.318;25.044;2023-06-26T01:13:16;17;17;
73517;PMS5003;61766;60.318;25.044;2023-06-26T01:15:42;16;16;
73517;PMS5003;61766;60.318;25.044;2023-06-26T01:18:08;17;17;
73517;PMS5003;61766;60.318;25.044;2023-06-26T01:20:34;20;20;
73517;PMS5003;61766;60.318;25.044;2023-06-26T01:23:01;16;16;
73517;PMS5003;61766;60.318;25.044;2023-06-26T01:25:28;20;19;
73517;PMS5003;61766;60.318;25.044;2023-06-26T01:27:50;17;17;
73517;PMS5003;61766;60.318;25.044;2023-06-26T01:30:15;16;16;
73517;PMS5003;61766;60.318;25.044;2023-06-26T01:32:41;17;16;
73517;PMS5003;61766;60.318;25.044;2023-06-26T01:35:07;16;16;
73517;PMS5003;61766;60.318;25.044;2023-06-26T01:37:32;19;19;
73517;PMS5003;61766;60.318;25.044;2023-06-26T01:39:57;16;15;
73517;PMS5003;61766;60.318;25.044;2023-06-26T01:42:23;15;15;
73517;PMS5003;61766;60.318;25.044;2023-06-26T01:44:49;17;17;
73517;PMS5003;61766;60.318;25.044;2023-06-26T01:47:16;17;16;
73517;PMS5003;61766;60.318;25.044;2023-06-26T01:49:43;15;15;
73517;PMS5003;61766;60.318;25.044;2023-06-26T01:52:07;18;17;
73517;PMS5003;61766;60.318;25.044;2023-06-26T01:54:33;20;20;
73517;PMS5003;61766;60.318;25.044;2023-06-26T01:56:57;18;16;
73517;PMS5003;61766;60.318;25.044;2023-06-26T01:59:23;14;14;
73517;PMS5003;61766;60.318;25.044;2023-06-26T02:01:49;15;15;
73517;PMS5003;61766;60.318;25.044;2023-06-26T02:04:14;13;13;
73517;PMS5003;61766;60.318;25.044;2023-06-26T02:06:40;16;16;
73517;PMS5003;61766;60.318;25.044;2023-06-26T02:09:06;16;16;
73517;PMS5003;61766;60.318;25.044;2023-06-26T02:11:32;16;16;
73517;PMS5003;61766;60.318;25.044;2023-06-26T02:13:57;18;17;
73517;PMS5003;61766;60.318;25.044;2023-06-26T02:16:23;15;15;
73517;PMS5003;61766;60.318;25.044;2023-06-26T02:18:49;16;16;
73517;PMS5003;61766;60.318;25.044;2023-06-26T02:21:14;15;15;
73517;PMS5003;61766;60.318;25.044;2023-06-26T02:23:41;16;16;
73517;PMS5003;61766;60.318;25.044;2023-06-26T02:26:06;14;14;
73517;PMS5003;61766;60.318;25.044;2023-06-26T02:28:31;18;17;
73517;PMS5003;61766;60.318;25.044;2023-06-26T02:30:57;22;21;
73517;PMS5003;61766;60.318;25.044;2023-06-26T02:33:23;18;18;
73517;PMS5003;61766;60.318;25.044;2023-06-26T02:35:49;18;18;
73517;PMS5003;61766;60.318;25.044;2023-06-26T02:38:14;21;21;
73517;PMS5003;61766;60.318;25.044;2023-06-26T02:40:40;18;17;
73517;PMS5003;61766;60.318;25.044;2023-06-26T02:43:06;18;18;
73517;PMS5003;61766;60.318;25.044;2023-06-26T02:45:31;19;19;
73517;PMS5003;61766;60.318;25.044;2023-06-26T02:47:56;22;22;
73517;PMS5003;61766;60.318;25.044;2023-06-26T02:50:22;20;19;
73517;PMS5003;61766;60.318;25.044;2023-06-26T02:52:47;20;20;
73517;PMS5003;61766;60.318;25.044;2023-06-26T02:55:13;19;19;
73517;PMS5003;61766;60.318;25.044;2023-06-26T02:57:39;21;21;
73517;PMS5003;61766;60.318;25.044;2023-06-26T03:00:04;20;20;
73517;PMS5003;61766;60.318;25.044;2023-06-26T03:02:30;21;20;
73517;PMS5003;61766;60.318;25.044;2023-06-26T03:04:56;24;24;
73517;PMS5003;61766;60.318;25.044;2023-06-26T03:07:21;18;18;
73517;PMS5003;61766;60.318;25.044;2023-06-26T03:09:47;21;20;
73517;PMS5003;61766;60.318;25.044;2023-06-26T03:12:12;25;25;
73517;PMS5003;61766;60.318;25.044;2023-06-26T03:14:37;21;21;
73517;PMS5003;61766;60.318;25.044;2023-06-26T03:17:03;19;19;
73517;PMS5003;61766;60.318;25.044;2023-06-26T03:19:29;22;21;
73517;PMS5003;61766;60.318;25.044;2023-06-26T03:21:54;23;21;
73517;PMS5003;61766;60.318;25.044;2023-06-26T03:24:20;24;23;
73517;PMS5003;61766;60.318;25.044;2023-06-26T03:26:46;23;20;
73517;PMS5003;61766;60.318;25.044;2023-06-26T03:29:12;19;19;
73517;PMS5003;61766;60.318;25.044;2023-06-26T03:31:37;24;23;
73517;PMS5003;61766;60.318;25.044;2023-06-26T03:34:03;21;21;
73517;PMS5003;61766;60.318;25.044;2023-06-26T03:36:28;20;19;
73517;PMS5003;61766;60.318;25.044;2023-06-26T03:38:54;22;21;
73517;PMS5003;61766;60.318;25.044;2023-06-26T03:41:20;20;20;
73517;PMS5003;61766;60.318;25.044;2023-06-26T03:43:45;22;22;
73517;PMS5003;61766;60.318;25.044;2023-06-26T03:46:11;25;24;
73517;PMS5003;61766;60.318;25.044;2023-06-26T03:48:36;22;22;
73517;PMS5003;61766;60.318;25.044;2023-06-26T03:51:02;22;21;
73517;PMS5003;61766;60.318;25.044;2023-06-26T03:53:28;22;22;
73517;PMS5003;61766;60.318;25.044;2023-06-26T03:55:53;22;22;
73517;PMS5003;61766;60.318;25.044;2023-06-26T03:58:19;21;21;
73517;PMS5003;61766;60.318;25.044;2023-06-26T04:00:44;25;24;
73517;PMS5003;61766;60.318;25.044;2023-06-26T04:03:10;24;24;
73517;PMS5003;61766;60.318;25.044;2023-06-26T04:05:35;23;23;
73517;PMS5003;61766;60.318;25.044;2023-06-26T04:08:01;24;24;
73517;PMS5003;61766;60.318;25.044;2023-06-26T04:10:26;23;22;
73517;PMS5003;61766;60.318;25.044;2023-06-26T04:12:51;30;29;
73517;PMS5003;61766;60.318;25.044;2023-06-26T04:15:17;29;28;
73517;PMS5003;61766;60.318;25.044;2023-06-26T04:17:42;22;22;
73517;PMS5003;61766;60.318;25.044;2023-06-26T04:20:08;29;29;
73517;PMS5003;61766;60.318;25.044;2023-06-26T04:22:33;28;28;
73517;PMS5003;61766;60.318;25.044;2023-06-26T04:25:00;26;25;
73517;PMS5003;61766;60.318;25.044;2023-06-26T04:27:24;23;23;
73517;PMS5003;61766;60.318;25.044;2023-06-26T04:29:49;22;22;
73517;PMS5003;61766;60.318;25.044;2023-06-26T04:32:15;27;27;
73517;PMS5003;61766;60.318;25.044;2023-06-26T04:34:40;28;28;
73517;PMS5003;61766;60.318;25.044;2023-06-26T04:37:06;26;25;
73517;PMS5003;61766;60.318;25.044;2023-06-26T04:39:32;25;24;
73517;PMS5003;61766;60.318;25.044;2023-06-26T04:41:57;27;27;
73517;PMS5003;61766;60.318;25.044;2023-06-26T04:44:22;26;25;
73517;PMS5003;61766;60.318;25.044;2023-06-26T04:46:47;23;22;
73517;PMS5003;61766;60.318;25.044;2023-06-26T04:49:13;23;22;
73517;PMS5003;61766;60.318;25.044;2023-06-26T04:51:38;18;18;
73517;PMS5003;61766;60.318;25.044;2023-06-26T04:54:04;25;24;
73517;PMS5003;61766;60.318;25.044;2023-06-26T04:56:29;25;24;
73517;PMS5003;61766;60.318;25.044;2023-06-26T04:58:55;23;23;
73517;PMS5003;61766;60.318;25.044;2023-06-26T05:01:20;22;22;
73517;PMS5003;61766;60.318;25.044;2023-06-26T05:03:45;21;21;
73517;PMS5003;61766;60.318;25.044;2023-06-26T05:06:11;21;20;
73517;PMS5003;61766;60.318;25.044;2023-06-26T05:08:36;23;23;
73517;PMS5003;61766;60.318;25.044;2023-06-26T05:11:02;23;23;
73517;PMS5003;61766;60.318;25.044;2023-06-26T05:13:30;20;20;
73517;PMS5003;61766;60.318;25.044;2023-06-26T05:15:53;23;23;
73517;PMS5003;61766;60.318;25.044;2023-06-26T05:18:19;30;26;
73517;PMS5003;61766;60.318;25.044;2023-06-26T05:20:45;23;23;
73517;PMS5003;61766;60.318;25.044;2023-06-26T05:23:11;20;20;
73517;PMS5003;61766;60.318;25.044;2023-06-26T05:25:35;25;25;
73517;PMS5003;61766;60.318;25.044;2023-06-26T05:28:02;24;24;
73517;PMS5003;61766;60.318;25.044;2023-06-26T05:30:26;25;24;
73517;PMS5003;61766;60.318;25.044;2023-06-26T05:32:52;21;21;
73517;PMS5003;61766;60.318;25.044;2023-06-26T05:35:17;23;22;
73517;PMS5003;61766;60.318;25.044;2023-06-26T05:37:45;22;22;
73517;PMS5003;61766;60.318;25.044;2023-06-26T05:40:09;20;20;
73517;PMS5003;61766;60.318;25.044;2023-06-26T05:42:34;24;24;
73517;PMS5003;61766;60.318;25.044;2023-06-26T05:44:59;21;21;
73517;PMS5003;61766;60.318;25.044;2023-06-26T05:47:25;26;26;
73517;PMS5003;61766;60.318;25.044;2023-06-26T05:49:50;25;25;
73517;PMS5003;61766;60.318;25.044;2023-06-26T05:52:15;22;22;
73517;PMS5003;61766;60.318;25.044;2023-06-26T05:54:40;23;23;
73517;PMS5003;61766;60.318;25.044;2023-06-26T05:57:06;24;23;
73517;PMS5003;61766;60.318;25.044;2023-06-26T05:59:32;24;23;
73517;PMS5003;61766;60.318;25.044;2023-06-26T06:01:57;27;24;
73517;PMS5003;61766;60.318;25.044;2023-06-26T06:04:22;19;19;
73517;PMS5003;61766;60.318;25.044;2023-06-26T06:06:48;22;22;
73517;PMS5003;61766;60.318;25.044;2023-06-26T06:09:13;22;22;
73517;PMS5003;61766;60.318;25.044;2023-06-26T06:11:38;19;19;
73517;PMS5003;61766;60.318;25.044;2023-06-26T06:14:04;24;23;
73517;PMS5003;61766;60.318;25.044;2023-06-26T06:16:29;20;20;
73517;PMS5003;61766;60.318;25.044;2023-06-26T06:18:56;21;20;
73517;PMS5003;61766;60.318;25.044;2023-06-26T06:21:20;21;21;
73517;PMS5003;61766;60.318;25.044;2023-06-26T06:23:45;22;22;
73517;PMS5003;61766;60.318;25.044;2023-06-26T06:26:11;19;19;
73517;PMS5003;61766;60.318;25.044;2023-06-26T06:28:36;27;27;
73517;PMS5003;61766;60.318;25.044;2023-06-26T06:31:01;23;23;
73517;PMS5003;61766;60.318;25.044;2023-06-26T06:33:27;17;16;
73517;PMS5003;61766;60.318;25.044;2023-06-26T06:35:53;22;22;
73517;PMS5003;61766;60.318;25.044;2023-06-26T06:38:18;21;20;
73517;PMS5003;61766;60.318;25.044;2023-06-26T06:40:44;18;18;
73517;PMS5003;61766;60.318;25.044;2023-06-26T06:43:09;20;20;
73517;PMS5003;61766;60.318;25.044;2023-06-26T06:45:35;22;21;
73517;PMS5003;61766;60.318;25.044;2023-06-26T06:48:01;22;21;
73517;PMS5003;61766;60.318;25.044;2023-06-26T06:50:25;22;22;
73517;PMS5003;61766;60.318;25.044;2023-06-26T06:52:53;26;26;
73517;PMS5003;61766;60.318;25.044;2023-06-26T06:55:17;22;22;
73517;PMS5003;61766;60.318;25.044;2023-06-26T06:57:43;25;25;
73517;PMS5003;61766;60.318;25.044;2023-06-26T07:00:08;22;22;
73517;PMS5003;61766;60.318;25.044;2023-06-26T07:02:33;22;22;
73517;PMS5003;61766;60.318;25.044;2023-06-26T07:04:59;23;23;
73517;PMS5003;61766;60.318;25.044;2023-06-26T07:07:25;22;22;
73517;PMS5003;61766;60.318;25.044;2023-06-26T07:09:50;23;23;
73517;PMS5003;61766;60.318;25.044;2023-06-26T07:12:15;20;20;
73517;PMS5003;61766;60.318;25.044;2023-06-26T07:14:41;20;20;
73517;PMS5003;61766;60.318;25.044;2023-06-26T07:17:07;17;17;
73517;PMS5003;61766;60.318;25.044;2023-06-26T07:19:32;23;23;
73517;PMS5003;61766;60.318;25.044;2023-06-26T07:21:57;19;19;
73517;PMS5003;61766;60.318;25.044;2023-06-26T07:24:23;18;17;
73517;PMS5003;61766;60.318;25.044;2023-06-26T07:26:48;17;17;
73517;PMS5003;61766;60.318;25.044;2023-06-26T07:29:13;15;15;
73517;PMS5003;61766;60.318;25.044;2023-06-26T07:31:39;18;18;
73517;PMS5003;61766;60.318;25.044;2023-06-26T07:34:05;16;16;
73517;PMS5003;61766;60.318;25.044;2023-06-26T07:36:30;20;19;
73517;PMS5003;61766;60.318;25.044;2023-06-26T07:38:55;17;17;
73517;PMS5003;61766;60.318;25.044;2023-06-26T07:41:21;14;14;
73517;PMS5003;61766;60.318;25.044;2023-06-26T07:43:47;15;15;
73517;PMS5003;61766;60.318;25.044;2023-06-26T07:46:12;19;19;
73517;PMS5003;61766;60.318;25.044;2023-06-26T07:48:38;17;16;
73517;PMS5003;61766;60.318;25.044;2023-06-26T07:51:03;19;19;
73517;PMS5003;61766;60.318;25.044;2023-06-26T07:53:29;16;16;
73517;PMS5003;61766;60.318;25.044;2023-06-26T07:55:54;15;15;
73517;PMS5003;61766;60.318;25.044;2023-06-26T07:58:20;19;19;
73517;PMS5003;61766;60.318;25.044;2023-06-26T08:00:46;15;15;
73517;PMS5003;61766;60.318;25.044;2023-06-26T08:03:11;14;14;
73517;PMS5003;61766;60.318;25.044;2023-06-26T08:05:37;14;14;
73517;PMS5003;61766;60.318;25.044;2023-06-26T08:08:05;11;11;
73517;PMS5003;61766;60.318;25.044;2023-06-26T08:10:30;13;13;
73517;PMS5003;61766;60.318;25.044;2023-06-26T08:12:59;14;14;
73517;PMS5003;61766;60.318;25.044;2023-06-26T08:15:20;15;14;
73517;PMS5003;61766;60.318;25.044;2023-06-26T08:17:45;12;12;
73517;PMS5003;61766;60.318;25.044;2023-06-26T08:20:12;13;13;
73517;PMS5003;61766;60.318;25.044;2023-06-26T08:22:36;13;13;
73517;PMS5003;61766;60.318;25.044;2023-06-26T08:25:02;16;16;
73517;PMS5003;61766;60.318;25.044;2023-06-26T08:27:26;15;15;
73517;PMS5003;61766;60.318;25.044;2023-06-26T08:29:52;16;16;
73517;PMS5003;61766;60.318;25.044;2023-06-26T08:32:18;13;13;
73517;PMS5003;61766;60.318;25.044;2023-06-26T08:34:43;15;15;
73517;PMS5003;61766;60.318;25.044;2023-06-26T08:37:09;11;11;
73517;PMS5003;61766;60.318;25.044;2023-06-26T08:39:35;13;13;
73517;PMS5003;61766;60.318;25.044;2023-06-26T08:42:00;14;14;
73517;PMS5003;61766;60.318;25.044;2023-06-26T08:44:31;14;14;
73517;PMS5003;61766;60.318;25.044;2023-06-26T08:49:25;13;13;
73517;PMS5003;61766;60.318;25.044;2023-06-26T08:51:44;15;15;
73517;PMS5003;61766;60.318;25.044;2023-06-26T08:54:09;15;14;
73517;PMS5003;61766;60.318;25.044;2023-06-26T08:56:42;17;17;
73517;PMS5003;61766;60.318;25.044;2023-06-26T08:58:59;14;14;
73517;PMS5003;61766;60.318;25.044;2023-06-26T09:01:25;13;13;
73517;PMS5003;61766;60.318;25.044;2023-06-26T09:03:51;12;12;
73517;PMS5003;61766;60.318;25.044;2023-06-26T09:06:16;13;12;
73517;PMS5003;61766;60.318;25.044;2023-06-26T09:08:42;15;14;
73517;PMS5003;61766;60.318;25.044;2023-06-26T09:11:07;13;13;
73517;PMS5003;61766;60.318;25.044;2023-06-26T09:13:33;12;11;
73517;PMS5003;61766;60.318;25.044;2023-06-26T09:15:59;10;10;
73517;PMS5003;61766;60.318;25.044;2023-06-26T09:18:24;12;12;
73517;PMS5003;61766;60.318;25.044;2023-06-26T09:20:50;11;11;
73517;PMS5003;61766;60.318;25.044;2023-06-26T09:23:15;14;14;
73517;PMS5003;61766;60.318;25.044;2023-06-26T09:25:41;14;14;
73517;PMS5003;61766;60.318;25.044;2023-06-26T09:28:06;11;11;
73517;PMS5003;61766;60.318;25.044;2023-06-26T09:30:31;17;17;
73517;PMS5003;61766;60.318;25.044;2023-06-26T09:32:57;16;15;
73517;PMS5003;61766;60.318;25.044;2023-06-26T09:35:23;12;12;
73517;PMS5003;61766;60.318;25.044;2023-06-26T09:37:48;14;14;
73517;PMS5003;61766;60.318;25.044;2023-06-26T09:40:14;11;11;
73517;PMS5003;61766;60.318;25.044;2023-06-26T09:42:39;11;11;
73517;PMS5003;61766;60.318;25.044;2023-06-26T09:45:05;11;11;
73517;PMS5003;61766;60.318;25.044;2023-06-26T09:47:34;12;11;
73517;PMS5003;61766;60.318;25.044;2023-06-26T09:49:56;12;12;
73517;PMS5003;61766;60.318;25.044;2023-06-26T09:52:25;13;13;
73517;PMS5003;61766;60.318;25.044;2023-06-26T09:54:48;12;12;
73517;PMS5003;61766;60.318;25.044;2023-06-26T09:57:15;11;9;
73517;PMS5003;61766;60.318;25.044;2023-06-26T09:59:39;11;9;
73517;PMS5003;61766;60.318;25.044;2023-06-26T10:02:04;9;9;
73517;PMS5003;61766;60.318;25.044;2023-06-26T10:04:30;10;10;
73517;PMS5003;61766;60.318;25.044;2023-06-26T10:06:56;11;11;
73517;PMS5003;61766;60.318;25.044;2023-06-26T10:09:21;11;11;
73517;PMS5003;61766;60.318;25.044;2023-06-26T10:11:48;10;10;
73517;PMS5003;61766;60.318;25.044;2023-06-26T10:14:12;11;11;
73517;PMS5003;61766;60.318;25.044;2023-06-26T10:16:38;13;13;
73517;PMS5003;61766;60.318;25.044;2023-06-26T10:19:05;13;13;
73517;PMS5003;61766;60.318;25.044;2023-06-26T10:21:29;11;11;
73517;PMS5003;61766;60.318;25.044;2023-06-26T10:23:55;12;12;
73517;PMS5003;61766;60.318;25.044;2023-06-26T10:26:21;15;15;
73517;PMS5003;61766;60.318;25.044;2023-06-26T10:28:46;17;16;
73517;PMS5003;61766;60.318;25.044;2023-06-26T10:31:12;11;11;
73517;PMS5003;61766;60.318;25.044;2023-06-26T10:33:37;11;11;
73517;PMS5003;61766;60.318;25.044;2023-06-26T10:40:54;11;11;
73517;PMS5003;61766;60.318;25.044;2023-06-26T10:43:20;12;11;
73517;PMS5003;61766;60.318;25.044;2023-06-26T10:45:46;14;14;
73517;PMS5003;61766;60.318;25.044;2023-06-26T10:48:12;14;13;
73517;PMS5003;61766;60.318;25.044;2023-06-26T10:50:36;12;12;
73517;PMS5003;61766;60.318;25.044;2023-06-26T10:53:08;12;11;
73517;PMS5003;61766;60.318;25.044;2023-06-26T10:55:28;11;10;
73517;PMS5003;61766;60.318;25.044;2023-06-26T10:57:53;12;10;
73517;PMS5003;61766;60.318;25.044;2023-06-26T11:00:19;12;12;
73517;PMS5003;61766;60.318;25.044;2023-06-26T11:02:48;10;10;
73517;PMS5003;61766;60.318;25.044;2023-06-26T11:05:10;13;13;
73517;PMS5003;61766;60.318;25.044;2023-06-26T11:07:36;12;12;
73517;PMS5003;61766;60.318;25.044;2023-06-26T11:10:02;14;13;
73517;PMS5003;61766;60.318;25.044;2023-06-26T11:12:34;13;13;
73517;PMS5003;61766;60.318;25.044;2023-06-26T11:14:53;12;12;
73517;PMS5003;61766;60.318;25.044;2023-06-26T11:17:18;14;14;
73517;PMS5003;61766;60.318;25.044;2023-06-26T11:19:43;13;13;
73517;PMS5003;61766;60.318;25.044;2023-06-26T11:22:09;12;12;
73517;PMS5003;61766;60.318;25.044;2023-06-26T11:24:35;16;16;
73517;PMS5003;61766;60.318;25.044;2023-06-26T11:27:01;17;17;
73517;PMS5003;61766;60.318;25.044;2023-06-26T11:29:26;20;20;
73517;PMS5003;61766;60.318;25.044;2023-06-26T11:31:57;18;18;
73517;PMS5003;61766;60.318;25.044;2023-06-26T11:34:17;18;18;
73517;PMS5003;61766;60.318;25.044;2023-06-26T11:36:42;22;22;
73517;PMS5003;61766;60.318;25.044;2023-06-26T11:39:09;19;19;
73517;PMS5003;61766;60.318;25.044;2023-06-26T11:41:39;18;18;
73517;PMS5003;61766;60.318;25.044;2023-06-26T11:44:00;20;20;
73517;PMS5003;61766;60.318;25.044;2023-06-26T11:46:25;18;18;
73517;PMS5003;61766;60.318;25.044;2023-06-26T11:48:50;16;16;
73517;PMS5003;61766;60.318;25.044;2023-06-26T11:51:16;22;22;
73517;PMS5003;61766;60.318;25.044;2023-06-26T11:53:41;21;21;
73517;PMS5003;61766;60.318;25.044;2023-06-26T11:56:08;16;16;
73517;PMS5003;61766;60.318;25.044;2023-06-26T11:58:32;19;19;
73517;PMS5003;61766;60.318;25.044;2023-06-26T12:00:58;18;18;
73517;PMS5003;61766;60.318;25.044;2023-06-26T12:03:23;21;21;
73517;PMS5003;61766;60.318;25.044;2023-06-26T12:05:54;18;18;
73517;PMS5003;61766;60.318;25.044;2023-06-26T12:08:14;17;17;
73517;PMS5003;61766;60.318;25.044;2023-06-26T12:10:39;18;17;
73517;PMS5003;61766;60.318;25.044;2023-06-26T12:13:05;18;18;
73517;PMS5003;61766;60.318;25.044;2023-06-26T12:15:30;18;18;
73517;PMS5003;61766;60.318;25.044;2023-06-26T12:17:56;16;16;
73517;PMS5003;61766;60.318;25.044;2023-06-26T12:20:22;17;17;
73517;PMS5003;61766;60.318;25.044;2023-06-26T12:22:47;17;17;
73517;PMS5003;61766;60.318;25.044;2023-06-26T12:25:12;16;16;
73517;PMS5003;61766;60.318;25.044;2023-06-26T12:27:37;15;15;
73517;PMS5003;61766;60.318;25.044;2023-06-26T12:30:03;14;14;
73517;PMS5003;61766;60.318;25.044;2023-06-26T12:32:28;14;14;
73517;PMS5003;61766;60.318;25.044;2023-06-26T12:34:53;14;14;
73517;PMS5003;61766;60.318;25.044;2023-06-26T12:37:19;13;13;
73517;PMS5003;61766;60.318;25.044;2023-06-26T12:39:45;14;14;
73517;PMS5003;61766;60.318;25.044;2023-06-26T12:42:12;15;15;
73517;PMS5003;61766;60.318;25.044;2023-06-26T12:44:36;14;14;
73517;PMS5003;61766;60.318;25.044;2023-06-26T12:49:30;14;14;
73517;PMS5003;61766;60.318;25.044;2023-06-26T12:51:52;14;14;
73517;PMS5003;61766;60.318;25.044;2023-06-26T12:54:18;13;13;
73517;PMS5003;61766;60.318;25.044;2023-06-26T12:56:44;13;12;
73517;PMS5003;61766;60.318;25.044;2023-06-26T12:59:09;11;11;
73517;PMS5003;61766;60.318;25.044;2023-06-26T13:01:35;13;13;
73517;PMS5003;61766;60.318;25.044;2023-06-26T13:04:01;14;13;
73517;PMS5003;61766;60.318;25.044;2023-06-26T13:06:26;11;11;
73517;PMS5003;61766;60.318;25.044;2023-06-26T13:08:52;14;14;
73517;PMS5003;61766;60.318;25.044;2023-06-26T13:11:18;12;12;
73517;PMS5003;61766;60.318;25.044;2023-06-26T13:13:43;10;10;
73517;PMS5003;61766;60.318;25.044;2023-06-26T13:16:09;13;12;
73517;PMS5003;61766;60.318;25.044;2023-06-26T13:18:34;13;12;
73517;PMS5003;61766;60.318;25.044;2023-06-26T13:21:00;12;12;
73517;PMS5003;61766;60.318;25.044;2023-06-26T13:23:25;12;12;
73517;PMS5003;61766;60.318;25.044;2023-06-26T13:25:51;12;12;
73517;PMS5003;61766;60.318;25.044;2023-06-26T13:28:17;13;13;
73517;PMS5003;61766;60.318;25.044;2023-06-26T13:30:42;13;13;
73517;PMS5003;61766;60.318;25.044;2023-06-26T13:33:08;13;13;
73517;PMS5003;61766;60.318;25.044;2023-06-26T13:35:33;14;13;
73517;PMS5003;61766;60.318;25.044;2023-06-26T13:37:59;16;16;
73517;PMS5003;61766;60.318;25.044;2023-06-26T13:40:25;17;15;
73517;PMS5003;61766;60.318;25.044;2023-06-26T13:42:50;13;13;
73517;PMS5003;61766;60.318;25.044;2023-06-26T13:45:15;15;15;
73517;PMS5003;61766;60.318;25.044;2023-06-26T13:47:41;14;14;
73517;PMS5003;61766;60.318;25.044;2023-06-26T13:50:07;15;15;
73517;PMS5003;61766;60.318;25.044;2023-06-26T13:52:32;17;17;
73517;PMS5003;61766;60.318;25.044;2023-06-26T13:54:57;15;14;
73517;PMS5003;61766;60.318;25.044;2023-06-26T13:57:23;15;15;
73517;PMS5003;61766;60.318;25.044;2023-06-26T13:59:48;11;11;
73517;PMS5003;61766;60.318;25.044;2023-06-26T14:02:14;12;12;
73517;PMS5003;61766;60.318;25.044;2023-06-26T14:04:40;14;14;
73517;PMS5003;61766;60.318;25.044;2023-06-26T14:07:06;12;12;
73517;PMS5003;61766;60.318;25.044;2023-06-26T14:09:31;10;10;
73517;PMS5003;61766;60.318;25.044;2023-06-26T14:11:58;11;11;
73517;PMS5003;61766;60.318;25.044;2023-06-26T14:14:22;14;13;
73517;PMS5003;61766;60.318;25.044;2023-06-26T14:16:48;10;10;
73517;PMS5003;61766;60.318;25.044;2023-06-26T14:19:14;10;10;
73517;PMS5003;61766;60.318;25.044;2023-06-26T14:21:39;11;10;
73517;PMS5003;61766;60.318;25.044;2023-06-26T14:24:05;13;13;
73517;PMS5003;61766;60.318;25.044;2023-06-26T14:26:30;10;10;
73517;PMS5003;61766;60.318;25.044;2023-06-26T14:28:56;13;13;
73517;PMS5003;61766;60.318;25.044;2023-06-26T14:31:22;10;10;
73517;PMS5003;61766;60.318;25.044;2023-06-26T14:33:47;12;11;
73517;PMS5003;61766;60.318;25.044;2023-06-26T14:36:13;11;11;
73517;PMS5003;61766;60.318;25.044;2023-06-26T14:38:39;11;11;
73517;PMS5003;61766;60.318;25.044;2023-06-26T14:41:04;12;12;
73517;PMS5003;61766;60.318;25.044;2023-06-26T14:43:30;9;9;
73517;PMS5003;61766;60.318;25.044;2023-06-26T14:45:56;11;11;
73517;PMS5003;61766;60.318;25.044;2023-06-26T14:48:21;10;10;
73517;PMS5003;61766;60.318;25.044;2023-06-26T14:50:47;13;13;
73517;PMS5003;61766;60.318;25.044;2023-06-26T14:53:12;9;9;
73517;PMS5003;61766;60.318;25.044;2023-06-26T14:55:38;12;12;
73517;PMS5003;61766;60.318;25.044;2023-06-26T14:58:04;12;12;
73517;PMS5003;61766;60.318;25.044;2023-06-26T15:00:29;13;12;
73517;PMS5003;61766;60.318;25.044;2023-06-26T15:02:55;10;10;
73517;PMS5003;61766;60.318;25.044;2023-06-26T15:05:21;10;10;
73517;PMS5003;61766;60.318;25.044;2023-06-26T15:07:46;12;12;
73517;PMS5003;61766;60.318;25.044;2023-06-26T15:10:12;10;10;
73517;PMS5003;61766;60.318;25.044;2023-06-26T15:12:38;12;11;
73517;PMS5003;61766;60.318;25.044;2023-06-26T15:15:03;14;14;
73517;PMS5003;61766;60.318;25.044;2023-06-26T15:17:29;13;13;
73517;PMS5003;61766;60.318;25.044;2023-06-26T15:19:54;11;11;
73517;PMS5003;61766;60.318;25.044;2023-06-26T15:22:21;11;11;
73517;PMS5003;61766;60.318;25.044;2023-06-26T15:24:46;12;12;
73517;PMS5003;61766;60.318;25.044;2023-06-26T15:27:11;14;13;
73517;PMS5003;61766;60.318;25.044;2023-06-26T15:29:37;11;11;
73517;PMS5003;61766;60.318;25.044;2023-06-26T15:32:03;12;12;
73517;PMS5003;61766;60.318;25.044;2023-06-26T15:34:28;12;12;
73517;PMS5003;61766;60.318;25.044;2023-06-26T15:36:54;11;11;
73517;PMS5003;61766;60.318;25.044;2023-06-26T15:39:19;11;11;
73517;PMS5003;61766;60.318;25.044;2023-06-26T15:41:45;12;11;
73517;PMS5003;61766;60.318;25.044;2023-06-26T15:44:10;10;10;
73517;PMS5003;61766;60.318;25.044;2023-06-26T15:46:36;11;11;
73517;PMS5003;61766;60.318;25.044;2023-06-26T15:49:02;11;11;
73517;PMS5003;61766;60.318;25.044;2023-06-26T15:51:27;10;10;
73517;PMS5003;61766;60.318;25.044;2023-06-26T15:53:53;13;13;
73517;PMS5003;61766;60.318;25.044;2023-06-26T15:56:19;12;11;
73517;PMS5003;61766;60.318;25.044;2023-06-26T15:58:44;9;9;